sensor_id;sensor_type;location;lat;lon;timestamp;pressure;altitude;pressure_sealevel;temperature;humidity
40730;BME280;26418;50.070;8.436;2024-03-08T00:01:15;100129.66;;;4.53;70.67
40730;BME280;26418;50.070;8.436;2024-03-08T00:03:42;100128.91;;;4.58;70.21
40730;BME280;26418;50.070;8.436;2024-03-08T00:06:08;100126.19;;;4.53;70.67
40730;BME280;26418;50.070;8.436;2024-03-08T00:08:33;100118.72;;;4.55;70.26
40730;BME280;26418;50.070;8.436;2024-03-08T00:10:59;100115.75;;;4.51;70.27
40730;BME280;26418;50.070;8.436;2024-03-08T00:13:24;100119.94;;;4.42;70.09
40730;BME280;26418;50.070;8.436;2024-03-08T00:15:50;100113.69;;;4.31;70.73
40730;BME280;26418;50.070;8.436;2024-03-08T00:18:16;100103.97;;;4.25;71.18
40730;BME280;26418;50.070;8.436;2024-03-08T00:20:42;100111.97;;;4.20;71.65
40730;BME280;26418;50.070;8.436;2024-03-08T00:23:09;100113.59;;;4.21;71.86
40730;BME280;26418;50.070;8.436;2024-03-08T00:25:39;100106.31;;;4.16;72.43
40730;BME280;26418;50.070;8.436;2024-03-08T00:28:07;100117.22;;;4.09;72.32
40730;BME280;26418;50.070;8.436;2024-03-08T00:30:33;100105.47;;;4.16;71.17
40730;BME280;26418;50.070;8.436;2024-03-08T00:32:58;100100.91;;;4.11;71.68
40730;BME280;26418;50.070;8.436;2024-03-08T00:35:25;100104.06;;;4.03;72.01
40730;BME280;26418;50.070;8.436;2024-03-08T00:37:53;100104.28;;;4.01;71.99
40730;BME280;26418;50.070;8.436;2024-03-08T00:40:24;100098.59;;;3.92;72.68
40730;BME280;26418;50.070;8.436;2024-03-08T00:42:50;100093.97;;;3.88;72.35
40730;BME280;26418;50.070;8.436;2024-03-08T00:45:15;100102.81;;;3.88;72.81
40730;BME280;26418;50.070;8.436;2024-03-08T00:47:41;100094.72;;;3.83;72.28
40730;BME280;26418;50.070;8.436;2024-03-08T00:50:09;100067.81;;;3.68;72.46
40730;BME280;26418;50.070;8.436;2024-03-08T00:52:35;100093.28;;;3.75;72.60
40730;BME280;26418;50.070;8.436;2024-03-08T00:55:01;100089.00;;;3.74;72.72
40730;BME280;26418;50.070;8.436;2024-03-08T00:57:27;100090.28;;;3.67;73.50
40730;BME280;26418;50.070;8.436;2024-03-08T00:59:53;100084.84;;;3.61;73.51
40730;BME280;26418;50.070;8.436;2024-03-08T01:02:19;100083.78;;;3.62;73.23
40730;BME280;26418;50.070;8.436;2024-03-08T01:04:49;100085.59;;;3.57;73.32
40730;BME280;26418;50.070;8.436;2024-03-08T01:07:18;100083.19;;;3.55;73.93
40730;BME280;26418;50.070;8.436;2024-03-08T01:09:43;100083.13;;;3.50;73.96
40730;BME280;26418;50.070;8.436;2024-03-08T01:12:09;100086.59;;;3.51;74.22
40730;BME280;26418;50.070;8.436;2024-03-08T01:14:35;100074.53;;;3.48;74.41
40730;BME280;26418;50.070;8.436;2024-03-08T01:17:04;100073.63;;;3.37;74.28
40730;BME280;26418;50.070;8.436;2024-03-08T01:19:30;100079.53;;;3.39;74.69
40730;BME280;26418;50.070;8.436;2024-03-08T01:21:57;100073.03;;;3.35;74.48
40730;BME280;26418;50.070;8.436;2024-03-08T01:24:26;100047.19;;;3.19;74.72
40730;BME280;26418;50.070;8.436;2024-03-08T01:26:51;100062.31;;;3.30;74.96
40730;BME280;26418;50.070;8.436;2024-03-08T01:29:17;100056.88;;;3.25;73.87
40730;BME280;26418;50.070;8.436;2024-03-08T01:31:43;100049.09;;;3.23;74.81
40730;BME280;26418;50.070;8.436;2024-03-08T01:34:08;100051.72;;;3.18;75.09
40730;BME280;26418;50.070;8.436;2024-03-08T01:36:40;100048.19;;;3.12;75.33
40730;BME280;26418;50.070;8.436;2024-03-08T01:39:05;100025.78;;;2.96;75.40
40730;BME280;26418;50.070;8.436;2024-03-08T01:41:37;100049.41;;;3.05;75.48
40730;BME280;26418;50.070;8.436;2024-03-08T01:44:03;100034.84;;;2.95;75.63
40730;BME280;26418;50.070;8.436;2024-03-08T01:46:29;100046.34;;;2.96;75.73
40730;BME280;26418;50.070;8.436;2024-03-08T01:48:59;100046.03;;;2.92;75.78
40730;BME280;26418;50.070;8.436;2024-03-08T01:51:31;100036.41;;;2.91;76.21
40730;BME280;26418;50.070;8.436;2024-03-08T01:53:57;100025.81;;;2.79;76.58
40730;BME280;26418;50.070;8.436;2024-03-08T01:56:24;100037.41;;;2.85;76.67
40730;BME280;26418;50.070;8.436;2024-03-08T01:58:50;100031.22;;;2.85;76.26
40730;BME280;26418;50.070;8.436;2024-03-08T02:01:17;100026.16;;;2.83;76.23
40730;BME280;26418;50.070;8.436;2024-03-08T02:03:44;100024.53;;;2.82;76.21
40730;BME280;26418;50.070;8.436;2024-03-08T02:06:13;100009.72;;;2.74;76.63
40730;BME280;26418;50.070;8.436;2024-03-08T02:08:43;100019.66;;;2.79;76.62
40730;BME280;26418;50.070;8.436;2024-03-08T02:11:12;100008.09;;;2.73;76.46
40730;BME280;26418;50.070;8.436;2024-03-08T02:13:38;100011.44;;;2.63;76.43
40730;BME280;26418;50.070;8.436;2024-03-08T02:16:04;100016.63;;;2.70;76.74
40730;BME280;26418;50.070;8.436;2024-03-08T02:18:33;100012.38;;;2.74;76.98
40730;BME280;26418;50.070;8.436;2024-03-08T02:21:00;100011.28;;;2.70;77.10
40730;BME280;26418;50.070;8.436;2024-03-08T02:23:28;100008.28;;;2.66;77.22
40730;BME280;26418;50.070;8.436;2024-03-08T02:25:57;100002.78;;;2.56;76.92
40730;BME280;26418;50.070;8.436;2024-03-08T02:28:23;100002.63;;;2.63;76.99
40730;BME280;26418;50.070;8.436;2024-03-08T02:30:50;99999.13;;;2.62;76.84
40730;BME280;26418;50.070;8.436;2024-03-08T02:33:19;99996.88;;;2.54;77.13
40730;BME280;26418;50.070;8.436;2024-03-08T02:35:45;100001.66;;;2.52;77.27
40730;BME280;26418;50.070;8.436;2024-03-08T02:38:15;99993.41;;;2.54;77.47
40730;BME280;26418;50.070;8.436;2024-03-08T02:40:48;99993.63;;;2.52;77.41
40730;BME280;26418;50.070;8.436;2024-03-08T02:43:15;99986.47;;;2.53;77.04
40730;BME280;26418;50.070;8.436;2024-03-08T02:45:43;99992.28;;;2.49;77.62
40730;BME280;26418;50.070;8.436;2024-03-08T02:48:10;99990.19;;;2.51;77.34
40730;BME280;26418;50.070;8.436;2024-03-08T02:50:36;99984.13;;;2.39;77.62
40730;BME280;26418;50.070;8.436;2024-03-08T02:53:03;99980.97;;;2.42;77.70
40730;BME280;26418;50.070;8.436;2024-03-08T02:55:29;99971.28;;;2.36;77.87
40730;BME280;26418;50.070;8.436;2024-03-08T02:57:55;99977.50;;;2.42;77.85
40730;BME280;26418;50.070;8.436;2024-03-08T03:00:21;99977.66;;;2.35;78.17
40730;BME280;26418;50.070;8.436;2024-03-08T03:02:51;99974.19;;;2.34;77.87
40730;BME280;26418;50.070;8.436;2024-03-08T03:05:20;99957.63;;;2.32;78.00
40730;BME280;26418;50.070;8.436;2024-03-08T03:07:46;99973.69;;;2.38;77.95
40730;BME280;26418;50.070;8.436;2024-03-08T03:10:12;99968.59;;;2.36;78.04
40730;BME280;26418;50.070;8.436;2024-03-08T03:12:40;99969.00;;;2.28;77.91
40730;BME280;26418;50.070;8.436;2024-03-08T03:15:06;99972.97;;;2.25;78.76
40730;BME280;26418;50.070;8.436;2024-03-08T03:17:32;99959.53;;;2.20;78.51
40730;BME280;26418;50.070;8.436;2024-03-08T03:19:57;99961.66;;;2.18;78.75
40730;BME280;26418;50.070;8.436;2024-03-08T03:22:23;99966.13;;;2.12;78.92
40730;BME280;26418;50.070;8.436;2024-03-08T03:24:50;99971.66;;;2.11;79.51
40730;BME280;26418;50.070;8.436;2024-03-08T03:27:17;99960.47;;;2.09;79.59
40730;BME280;26418;50.070;8.436;2024-03-08T03:29:43;99963.25;;;2.19;79.21
40730;BME280;26418;50.070;8.436;2024-03-08T03:32:15;99962.47;;;2.18;79.22
40730;BME280;26418;50.070;8.436;2024-03-08T03:34:44;99959.00;;;2.18;79.49
40730;BME280;26418;50.070;8.436;2024-03-08T03:37:09;99967.47;;;2.15;79.61
40730;BME280;26418;50.070;8.436;2024-03-08T03:39:38;99961.81;;;2.11;79.44
40730;BME280;26418;50.070;8.436;2024-03-08T03:42:22;99943.72;;;1.96;80.18
40730;BME280;26418;50.070;8.436;2024-03-08T03:44:50;99962.56;;;2.07;79.64
40730;BME280;26418;50.070;8.436;2024-03-08T03:47:15;99957.38;;;2.00;79.62
40730;BME280;26418;50.070;8.436;2024-03-08T03:49:41;99963.75;;;1.99;80.38
40730;BME280;26418;50.070;8.436;2024-03-08T03:52:08;99962.13;;;1.98;79.85
40730;BME280;26418;50.070;8.436;2024-03-08T03:54:40;99952.19;;;1.93;80.00
40730;BME280;26418;50.070;8.436;2024-03-08T03:57:05;99961.47;;;1.91;80.22
40730;BME280;26418;50.070;8.436;2024-03-08T03:59:33;99958.66;;;1.80;81.06
40730;BME280;26418;50.070;8.436;2024-03-08T04:01:58;99958.88;;;1.79;81.66
40730;BME280;26418;50.070;8.436;2024-03-08T04:04:24;99951.63;;;1.74;81.45
40730;BME280;26418;50.070;8.436;2024-03-08T04:06:50;99954.06;;;1.76;81.76
40730;BME280;26418;50.070;8.436;2024-03-08T04:09:16;99944.91;;;1.71;82.62
40730;BME280;26418;50.070;8.436;2024-03-08T04:11:47;99950.16;;;1.83;81.98
40730;BME280;26418;50.070;8.436;2024-03-08T04:14:12;99961.66;;;1.84;82.30
40730;BME280;26418;50.070;8.436;2024-03-08T04:16:38;99957.06;;;1.79;82.04
40730;BME280;26418;50.070;8.436;2024-03-08T04:19:07;99956.22;;;1.79;81.97
40730;BME280;26418;50.070;8.436;2024-03-08T04:21:33;99949.03;;;1.79;81.84
40730;BME280;26418;50.070;8.436;2024-03-08T04:23:59;99946.28;;;1.74;82.04
40730;BME280;26418;50.070;8.436;2024-03-08T04:26:24;99945.63;;;1.67;82.54
40730;BME280;26418;50.070;8.436;2024-03-08T04:28:51;99949.84;;;1.63;83.17
40730;BME280;26418;50.070;8.436;2024-03-08T04:31:17;99949.66;;;1.69;83.11
40730;BME280;26418;50.070;8.436;2024-03-08T04:33:45;99938.03;;;1.59;82.64
40730;BME280;26418;50.070;8.436;2024-03-08T04:36:10;99939.50;;;1.66;83.69
40730;BME280;26418;50.070;8.436;2024-03-08T04:38:41;99942.25;;;1.71;83.38
40730;BME280;26418;50.070;8.436;2024-03-08T04:41:07;99935.94;;;1.61;83.11
40730;BME280;26418;50.070;8.436;2024-03-08T04:43:34;99929.13;;;1.53;83.89
40730;BME280;26418;50.070;8.436;2024-03-08T04:46:00;99931.47;;;1.49;83.76
40730;BME280;26418;50.070;8.436;2024-03-08T04:48:29;99937.38;;;1.51;84.15
40730;BME280;26418;50.070;8.436;2024-03-08T04:50:54;99938.34;;;1.45;84.51
40730;BME280;26418;50.070;8.436;2024-03-08T04:53:27;99935.41;;;1.47;84.85
40730;BME280;26418;50.070;8.436;2024-03-08T04:55:52;99944.00;;;1.49;84.76
40730;BME280;26418;50.070;8.436;2024-03-08T04:58:18;99932.75;;;1.47;84.79
40730;BME280;26418;50.070;8.436;2024-03-08T05:00:43;99929.75;;;1.43;84.69
40730;BME280;26418;50.070;8.436;2024-03-08T05:03:09;99935.72;;;1.33;84.64
40730;BME280;26418;50.070;8.436;2024-03-08T05:05:37;99925.28;;;1.32;85.54
40730;BME280;26418;50.070;8.436;2024-03-08T05:08:03;99929.09;;;1.36;85.13
40730;BME280;26418;50.070;8.436;2024-03-08T05:10:30;99935.47;;;1.35;85.21
40730;BME280;26418;50.070;8.436;2024-03-08T05:13:02;99923.66;;;1.31;85.87
40730;BME280;26418;50.070;8.436;2024-03-08T05:15:27;99917.53;;;1.30;85.48
40730;BME280;26418;50.070;8.436;2024-03-08T05:17:55;99922.72;;;1.37;85.79
40730;BME280;26418;50.070;8.436;2024-03-08T05:20:26;99922.78;;;1.25;85.45
40730;BME280;26418;50.070;8.436;2024-03-08T05:22:51;99920.84;;;1.20;85.95
40730;BME280;26418;50.070;8.436;2024-03-08T05:25:17;99926.72;;;1.22;86.29
40730;BME280;26418;50.070;8.436;2024-03-08T05:27:43;99936.50;;;1.17;86.44
40730;BME280;26418;50.070;8.436;2024-03-08T05:30:09;99926.63;;;1.17;86.87
40730;BME280;26418;50.070;8.436;2024-03-08T05:32:41;99933.13;;;1.21;86.83
40730;BME280;26418;50.070;8.436;2024-03-08T05:35:10;99920.72;;;1.15;86.39
40730;BME280;26418;50.070;8.436;2024-03-08T05:37:37;99926.63;;;1.17;86.65
40730;BME280;26418;50.070;8.436;2024-03-08T05:40:03;99914.53;;;0.98;87.06
40730;BME280;26418;50.070;8.436;2024-03-08T05:42:34;99929.25;;;1.00;87.44
40730;BME280;26418;50.070;8.436;2024-03-08T05:45:03;99925.19;;;0.98;87.55
40730;BME280;26418;50.070;8.436;2024-03-08T05:47:29;99927.38;;;1.01;87.72
40730;BME280;26418;50.070;8.436;2024-03-08T05:49:55;99919.31;;;0.96;87.58
40730;BME280;26418;50.070;8.436;2024-03-08T05:52:20;99916.53;;;0.90;87.59
40730;BME280;26418;50.070;8.436;2024-03-08T05:54:48;99904.50;;;0.88;88.05
40730;BME280;26418;50.070;8.436;2024-03-08T05:57:14;99919.38;;;1.01;88.04
40730;BME280;26418;50.070;8.436;2024-03-08T05:59:40;99915.94;;;1.00;88.09
40730;BME280;26418;50.070;8.436;2024-03-08T06:02:05;99909.69;;;0.94;87.69
40730;BME280;26418;50.070;8.436;2024-03-08T06:04:31;99915.81;;;0.95;88.84
40730;BME280;26418;50.070;8.436;2024-03-08T06:07:00;99916.63;;;0.96;88.54
40730;BME280;26418;50.070;8.436;2024-03-08T06:09:25;99916.81;;;1.06;88.55
40730;BME280;26418;50.070;8.436;2024-03-08T06:11:54;99905.81;;;1.02;88.33
40730;BME280;26418;50.070;8.436;2024-03-08T06:14:20;99904.56;;;1.05;87.38
40730;BME280;26418;50.070;8.436;2024-03-08T06:16:46;99917.72;;;1.12;87.54
40730;BME280;26418;50.070;8.436;2024-03-08T06:19:13;99912.19;;;1.13;87.36
40730;BME280;26418;50.070;8.436;2024-03-08T06:21:39;99902.78;;;1.10;87.70
40730;BME280;26418;50.070;8.436;2024-03-08T06:24:05;99895.13;;;1.14;87.56
40730;BME280;26418;50.070;8.436;2024-03-08T06:26:30;99903.88;;;1.27;87.03
40730;BME280;26418;50.070;8.436;2024-03-08T06:28:56;99881.91;;;1.19;86.77
40730;BME280;26418;50.070;8.436;2024-03-08T06:31:25;99900.25;;;1.33;87.16
40730;BME280;26418;50.070;8.436;2024-03-08T06:33:54;99906.97;;;1.35;86.57
40730;BME280;26418;50.070;8.436;2024-03-08T06:36:20;99903.59;;;1.40;86.46
40730;BME280;26418;50.070;8.436;2024-03-08T06:38:47;99910.84;;;1.45;86.17
40730;BME280;26418;50.070;8.436;2024-03-08T06:41:13;99897.78;;;1.43;86.10
40730;BME280;26418;50.070;8.436;2024-03-08T06:43:44;99906.91;;;1.47;85.88
40730;BME280;26418;50.070;8.436;2024-03-08T06:46:10;99900.31;;;1.50;86.35
40730;BME280;26418;50.070;8.436;2024-03-08T06:48:38;99903.50;;;1.52;85.81
40730;BME280;26418;50.070;8.436;2024-03-08T06:51:10;99901.34;;;1.49;85.86
40730;BME280;26418;50.070;8.436;2024-03-08T06:53:36;99895.06;;;1.55;86.00
40730;BME280;26418;50.070;8.436;2024-03-08T06:56:02;99904.28;;;1.64;85.55
40730;BME280;26418;50.070;8.436;2024-03-08T06:58:28;99899.25;;;1.68;85.19
40730;BME280;26418;50.070;8.436;2024-03-08T07:00:54;99892.16;;;1.73;85.20
40730;BME280;26418;50.070;8.436;2024-03-08T07:03:23;99888.78;;;1.78;84.42
40730;BME280;26418;50.070;8.436;2024-03-08T07:05:49;99896.84;;;1.83;84.52
40730;BME280;26418;50.070;8.436;2024-03-08T07:08:15;99886.00;;;1.90;84.08
40730;BME280;26418;50.070;8.436;2024-03-08T07:10:42;99879.63;;;1.91;83.97
40730;BME280;26418;50.070;8.436;2024-03-08T07:13:08;99889.38;;;2.02;83.72
40730;BME280;26418;50.070;8.436;2024-03-08T07:15:34;99884.88;;;2.03;83.79
40730;BME280;26418;50.070;8.436;2024-03-08T07:18:00;99888.44;;;2.09;82.98
40730;BME280;26418;50.070;8.436;2024-03-08T07:20:26;99891.47;;;2.17;82.57
40730;BME280;26418;50.070;8.436;2024-03-08T07:22:54;99887.59;;;2.25;82.37
40730;BME280;26418;50.070;8.436;2024-03-08T07:25:19;99880.69;;;2.29;82.27
40730;BME280;26418;50.070;8.436;2024-03-08T07:27:55;99886.50;;;2.43;81.42
40730;BME280;26418;50.070;8.436;2024-03-08T07:30:25;99877.19;;;2.46;80.77
40730;BME280;26418;50.070;8.436;2024-03-08T07:33:09;99878.41;;;2.60;80.54
40730;BME280;26418;50.070;8.436;2024-03-08T07:35:38;99880.41;;;2.70;80.16
40730;BME280;26418;50.070;8.436;2024-03-08T07:38:07;99877.06;;;2.80;83.04
40730;BME280;26418;50.070;8.436;2024-03-08T07:40:39;99883.28;;;2.86;79.96
40730;BME280;26418;50.070;8.436;2024-03-08T07:43:08;99869.16;;;2.90;79.52
40730;BME280;26418;50.070;8.436;2024-03-08T07:45:34;99864.13;;;2.94;79.11
40730;BME280;26418;50.070;8.436;2024-03-08T07:48:04;99864.25;;;3.04;78.55
40730;BME280;26418;50.070;8.436;2024-03-08T07:50:36;99853.78;;;3.03;78.61
40730;BME280;26418;50.070;8.436;2024-03-08T07:53:03;99856.06;;;3.16;77.95
40730;BME280;26418;50.070;8.436;2024-03-08T07:55:32;99864.66;;;3.18;77.54
40730;BME280;26418;50.070;8.436;2024-03-08T07:57:58;99858.22;;;3.19;77.43
40730;BME280;26418;50.070;8.436;2024-03-08T08:00:24;99842.53;;;3.23;77.43
40730;BME280;26418;50.070;8.436;2024-03-08T08:02:53;99858.63;;;3.33;76.99
40730;BME280;26418;50.070;8.436;2024-03-08T08:05:19;99856.00;;;3.38;77.32
40730;BME280;26418;50.070;8.436;2024-03-08T08:07:45;99852.13;;;3.51;77.00
40730;BME280;26418;50.070;8.436;2024-03-08T08:10:17;99847.34;;;3.58;76.41
40730;BME280;26418;50.070;8.436;2024-03-08T08:12:50;99844.69;;;3.58;76.00
40730;BME280;26418;50.070;8.436;2024-03-08T08:15:21;99843.69;;;3.70;76.02
40730;BME280;26418;50.070;8.436;2024-03-08T08:17:53;99846.69;;;3.73;76.05
40730;BME280;26418;50.070;8.436;2024-03-08T08:20:19;99825.81;;;3.75;75.97
40730;BME280;26418;50.070;8.436;2024-03-08T08:22:50;99837.69;;;3.90;76.06
40730;BME280;26418;50.070;8.436;2024-03-08T08:25:16;99829.72;;;4.00;75.77
40730;BME280;26418;50.070;8.436;2024-03-08T08:27:48;99829.78;;;4.11;75.56
40730;BME280;26418;50.070;8.436;2024-03-08T08:30:14;99821.81;;;4.21;74.62
40730;BME280;26418;50.070;8.436;2024-03-08T08:32:39;99809.22;;;4.21;74.17
40730;BME280;26418;50.070;8.436;2024-03-08T08:35:07;99802.28;;;4.25;74.27
40730;BME280;26418;50.070;8.436;2024-03-08T08:37:38;99813.84;;;4.41;73.27
40730;BME280;26418;50.070;8.436;2024-03-08T08:40:06;99803.41;;;4.45;72.98
40730;BME280;26418;50.070;8.436;2024-03-08T08:42:36;99798.88;;;4.51;73.32
40730;BME280;26418;50.070;8.436;2024-03-08T08:45:03;99802.66;;;4.60;73.02
40730;BME280;26418;50.070;8.436;2024-03-08T08:47:29;99795.75;;;4.75;72.65
40730;BME280;26418;50.070;8.436;2024-03-08T08:49:54;99788.53;;;4.80;72.01
40730;BME280;26418;50.070;8.436;2024-03-08T08:52:20;99783.72;;;4.87;71.82
40730;BME280;26418;50.070;8.436;2024-03-08T08:54:45;99784.53;;;5.03;71.58
40730;BME280;26418;50.070;8.436;2024-03-08T08:57:11;99782.41;;;5.21;71.48
40730;BME280;26418;50.070;8.436;2024-03-08T08:59:36;99785.09;;;5.37;71.01
40730;BME280;26418;50.070;8.436;2024-03-08T09:02:07;99786.97;;;5.46;70.13
40730;BME280;26418;50.070;8.436;2024-03-08T09:04:34;99774.59;;;5.56;69.18
40730;BME280;26418;50.070;8.436;2024-03-08T09:07:01;99768.44;;;5.71;69.23
40730;BME280;26418;50.070;8.436;2024-03-08T09:09:27;99764.66;;;5.82;68.74
40730;BME280;26418;50.070;8.436;2024-03-08T09:11:52;99757.91;;;5.95;68.62
40730;BME280;26418;50.070;8.436;2024-03-08T09:14:19;99743.13;;;6.03;67.29
40730;BME280;26418;50.070;8.436;2024-03-08T09:16:45;99750.09;;;6.14;66.78
40730;BME280;26418;50.070;8.436;2024-03-08T09:19:15;99731.56;;;6.12;66.11
40730;BME280;26418;50.070;8.436;2024-03-08T09:21:42;99732.88;;;6.20;65.54
40730;BME280;26418;50.070;8.436;2024-03-08T09:24:08;99738.44;;;6.34;65.28
40730;BME280;26418;50.070;8.436;2024-03-08T09:26:39;99737.56;;;6.44;66.25
40730;BME280;26418;50.070;8.436;2024-03-08T09:29:07;99735.91;;;6.58;65.29
40730;BME280;26418;50.070;8.436;2024-03-08T09:31:33;99720.81;;;6.63;64.50
40730;BME280;26418;50.070;8.436;2024-03-08T09:34:02;99724.28;;;6.68;63.93
40730;BME280;26418;50.070;8.436;2024-03-08T09:36:27;99722.88;;;6.76;63.38
40730;BME280;26418;50.070;8.436;2024-03-08T09:38:53;99720.16;;;6.81;63.48
40730;BME280;26418;50.070;8.436;2024-03-08T09:41:19;99707.16;;;6.93;63.99
40730;BME280;26418;50.070;8.436;2024-03-08T09:43:53;99696.56;;;7.07;64.03
40730;BME280;26418;50.070;8.436;2024-03-08T09:46:21;99690.78;;;7.24;63.82
40730;BME280;26418;50.070;8.436;2024-03-08T09:48:48;99696.41;;;7.52;62.94
40730;BME280;26418;50.070;8.436;2024-03-08T09:51:14;99692.81;;;7.62;62.13
40730;BME280;26418;50.070;8.436;2024-03-08T09:53:41;99678.88;;;7.79;61.43
40730;BME280;26418;50.070;8.436;2024-03-08T09:56:10;99679.78;;;7.94;60.98
40730;BME280;26418;50.070;8.436;2024-03-08T09:58:37;99672.00;;;8.11;66.72
40730;BME280;26418;50.070;8.436;2024-03-08T10:01:19;99660.66;;;8.33;69.38
40730;BME280;26418;50.070;8.436;2024-03-08T10:03:47;99646.84;;;8.59;62.90
40730;BME280;26418;50.070;8.436;2024-03-08T10:06:14;99665.00;;;8.87;65.01
40730;BME280;26418;50.070;8.436;2024-03-08T10:08:40;99652.16;;;8.98;65.40
40730;BME280;26418;50.070;8.436;2024-03-08T10:11:05;99630.38;;;8.94;58.24
40730;BME280;26418;50.070;8.436;2024-03-08T10:13:32;99636.47;;;9.00;59.42
40730;BME280;26418;50.070;8.436;2024-03-08T10:15:58;99632.47;;;8.97;59.53
40730;BME280;26418;50.070;8.436;2024-03-08T10:18:23;99638.72;;;9.25;64.32
40730;BME280;26418;50.070;8.436;2024-03-08T10:21:08;99632.53;;;9.53;65.30
40730;BME280;26418;50.070;8.436;2024-03-08T10:23:39;99619.50;;;9.83;57.78
40730;BME280;26418;50.070;8.436;2024-03-08T10:26:15;99619.31;;;9.93;60.69
40730;BME280;26418;50.070;8.436;2024-03-08T10:28:44;99620.22;;;10.25;58.48
40730;BME280;26418;50.070;8.436;2024-03-08T10:31:10;99618.66;;;10.47;57.38
40730;BME280;26418;50.070;8.436;2024-03-08T10:33:39;99606.06;;;10.65;55.37
40730;BME280;26418;50.070;8.436;2024-03-08T10:36:07;99604.03;;;10.48;51.41
40730;BME280;26418;50.070;8.436;2024-03-08T10:38:36;99592.97;;;10.35;52.07
40730;BME280;26418;50.070;8.436;2024-03-08T10:41:03;99588.50;;;10.17;52.82
40730;BME280;26418;50.070;8.436;2024-03-08T10:43:49;99593.47;;;10.37;52.64
40730;BME280;26418;50.070;8.436;2024-03-08T10:49:08;99585.63;;;10.36;52.00
40730;BME280;26418;50.070;8.436;2024-03-08T10:51:38;99584.84;;;10.35;51.48
40730;BME280;26418;50.070;8.436;2024-03-08T10:54:09;99582.88;;;10.27;51.69
40730;BME280;26418;50.070;8.436;2024-03-08T10:56:36;99583.28;;;10.20;51.63
40730;BME280;26418;50.070;8.436;2024-03-08T10:59:09;99570.34;;;10.31;50.60
40730;BME280;26418;50.070;8.436;2024-03-08T11:01:35;99580.53;;;10.34;50.13
40730;BME280;26418;50.070;8.436;2024-03-08T11:04:04;99569.13;;;10.37;50.14
40730;BME280;26418;50.070;8.436;2024-03-08T11:09:31;99579.56;;;10.76;49.95
40730;BME280;26418;50.070;8.436;2024-03-08T11:12:24;99549.91;;;10.70;49.31
40730;BME280;26418;50.070;8.436;2024-03-08T11:15:02;99565.84;;;10.72;48.94
40730;BME280;26418;50.070;8.436;2024-03-08T11:20:13;99564.44;;;10.75;49.88
40730;BME280;26418;50.070;8.436;2024-03-08T11:23:03;99564.44;;;10.75;49.54
40730;BME280;26418;50.070;8.436;2024-03-08T11:25:37;99550.59;;;10.76;49.01
40730;BME280;26418;50.070;8.436;2024-03-08T11:28:21;99543.63;;;10.84;48.85
40730;BME280;26418;50.070;8.436;2024-03-08T11:33:30;99529.25;;;11.06;49.45
40730;BME280;26418;50.070;8.436;2024-03-08T11:36:22;99533.63;;;11.33;49.64
40730;BME280;26418;50.070;8.436;2024-03-08T11:38:50;99532.38;;;11.48;47.96
40730;BME280;26418;50.070;8.436;2024-03-08T11:43:48;99530.00;;;11.56;47.45
40730;BME280;26418;50.070;8.436;2024-03-08T11:46:15;99525.09;;;11.58;47.18
40730;BME280;26418;50.070;8.436;2024-03-08T11:48:42;99523.97;;;11.68;46.91
40730;BME280;26418;50.070;8.436;2024-03-08T11:51:10;99512.31;;;11.50;46.84
40730;BME280;26418;50.070;8.436;2024-03-08T11:53:39;99515.16;;;11.44;47.54
40730;BME280;26418;50.070;8.436;2024-03-08T11:56:10;99496.66;;;11.38;47.13
40730;BME280;26418;50.070;8.436;2024-03-08T11:58:52;99500.81;;;11.26;48.08
40730;BME280;26418;50.070;8.436;2024-03-08T12:01:18;99506.06;;;11.31;48.21
40730;BME280;26418;50.070;8.436;2024-03-08T12:03:54;99493.94;;;11.20;48.26
40730;BME280;26418;50.070;8.436;2024-03-08T12:06:20;99495.19;;;11.14;48.53
40730;BME280;26418;50.070;8.436;2024-03-08T12:08:49;99489.44;;;11.07;48.42
40730;BME280;26418;50.070;8.436;2024-03-08T12:11:17;99494.38;;;11.05;49.05
40730;BME280;26418;50.070;8.436;2024-03-08T12:13:48;99484.22;;;11.19;49.81
40730;BME280;26418;50.070;8.436;2024-03-08T12:16:19;99468.31;;;11.26;50.15
40730;BME280;26418;50.070;8.436;2024-03-08T12:18:47;99477.56;;;11.52;48.60
40730;BME280;26418;50.070;8.436;2024-03-08T12:21:19;99475.19;;;11.50;47.92
40730;BME280;26418;50.070;8.436;2024-03-08T12:24:21;99477.44;;;11.57;47.82
40730;BME280;26418;50.070;8.436;2024-03-08T12:26:47;99472.31;;;11.38;47.02
40730;BME280;26418;50.070;8.436;2024-03-08T12:29:18;99464.84;;;11.52;48.27
40730;BME280;26418;50.070;8.436;2024-03-08T12:31:51;99461.97;;;11.57;47.55
40730;BME280;26418;50.070;8.436;2024-03-08T12:34:23;99456.88;;;11.56;50.34
40730;BME280;26418;50.070;8.436;2024-03-08T12:36:49;99459.59;;;11.73;48.99
40730;BME280;26418;50.070;8.436;2024-03-08T12:39:19;99461.63;;;11.94;52.27
40730;BME280;26418;50.070;8.436;2024-03-08T12:41:55;99449.66;;;12.21;52.79
40730;BME280;26418;50.070;8.436;2024-03-08T12:44:25;99454.41;;;12.42;51.10
40730;BME280;26418;50.070;8.436;2024-03-08T12:47:03;99443.81;;;12.58;47.58
40730;BME280;26418;50.070;8.436;2024-03-08T12:49:29;99445.03;;;12.69;48.45
40730;BME280;26418;50.070;8.436;2024-03-08T12:51:56;99445.50;;;12.71;46.70
40730;BME280;26418;50.070;8.436;2024-03-08T12:54:21;99432.63;;;12.60;45.60
40730;BME280;26418;50.070;8.436;2024-03-08T12:56:52;99435.25;;;12.38;45.21
40730;BME280;26418;50.070;8.436;2024-03-08T12:59:20;99429.91;;;12.21;46.33
40730;BME280;26418;50.070;8.436;2024-03-08T13:01:47;99433.72;;;12.20;47.19
40730;BME280;26418;50.070;8.436;2024-03-08T13:04:12;99425.94;;;12.09;46.25
40730;BME280;26418;50.070;8.436;2024-03-08T13:06:38;99414.44;;;12.13;48.05
40730;BME280;26418;50.070;8.436;2024-03-08T13:09:04;99418.28;;;12.20;47.34
40730;BME280;26418;50.070;8.436;2024-03-08T13:11:31;99417.59;;;12.23;47.23
40730;BME280;26418;50.070;8.436;2024-03-08T13:14:05;99413.97;;;12.19;47.39
40730;BME280;26418;50.070;8.436;2024-03-08T13:16:30;99403.91;;;12.20;46.77
40730;BME280;26418;50.070;8.436;2024-03-08T13:18:57;99408.22;;;12.21;47.75
40730;BME280;26418;50.070;8.436;2024-03-08T13:21:22;99409.03;;;12.13;48.00
40730;BME280;26418;50.070;8.436;2024-03-08T13:23:49;99394.69;;;12.12;47.87
40730;BME280;26418;50.070;8.436;2024-03-08T13:26:15;99392.13;;;12.16;47.65